Little Fort, Canada
Current Conditions -  °F | °C
As of 2:00 AM on Saturday 25 Oct 2014 (Local Time) from CYKA Reporting Station
Overcast Overcast  
Wind Chill:   Ceiling: 10000
Heat Index:   Visibility: 40mi
Dew Point:   Wind: 8mph
Humidity: 62%   Direction: 120°ESE
Pressure: 29.92"   Gusts: NA
Location:  51.43°N, 120.2°W
Report Text: CYKA 250900Z 12007KT 40SM SCT030 OVC100 08/01 A2992 RMK SC3AC5 SLP140
Loading
Personal Weather Stations






























Interactive Weather Map
Tropical Storm Tracking
New forecast layout! Learn more

10-Day Weather Forecast

Advertisements
Track Severe Weather on mobile